METAR Data

Data at: 1228 UTC 24 May 2022

METAR for:KTAN (Taunton Muni, MA, US)
Text:KTAN 241152Z AUTO 07006KT 10SM CLR 13/06 A3033 RMK AO2 SLP271 T01280056 10133 20106 53012
Temperature: 12.8°C ( 55°F)
Dewpoint: 5.6°C ( 42°F) [RH = 62%]
Pressure (altimeter):30.33 inches Hg (1027.2 mb) [Sea level pressure: 1027.1 mb]
Winds:from the ENE (70 degrees) at 7 MPH (6 knots; 3.1 m/s)
Visibility:10 or more sm (16+ km)
Ceiling:at least 12,000 feet AGL
Clouds:sky clear below 12,000 feet AGL
QC Flag:automated observation with no human augmentation